createdAt,value
2022-12-17T00:00:42.014Z,143.50
2022-12-17T00:01:41.930Z,142.50
2022-12-17T00:02:42.123Z,124.50
2022-12-17T00:03:42.431Z,248.30
2022-12-17T00:04:41.861Z,145.00
2022-12-17T00:05:41.855Z,299.10
2022-12-17T00:06:41.847Z,165.20
2022-12-17T00:07:41.862Z,152.20
2022-12-17T00:08:41.819Z,130.90
2022-12-17T00:09:43.580Z,154.20
2022-12-17T00:10:41.804Z,169.90
2022-12-17T00:11:41.787Z,230.60
2022-12-17T00:12:41.776Z,257.40
2022-12-17T00:13:41.820Z,265.20
2022-12-17T00:14:41.759Z,198.00
2022-12-17T00:15:41.808Z,197.00
2022-12-17T00:16:41.851Z,218.70
2022-12-17T00:17:41.724Z,145.20
2022-12-17T00:18:41.715Z,144.40
2022-12-17T00:19:41.736Z,132.90
2022-12-17T00:20:41.693Z,170.90
2022-12-17T00:21:41.688Z,196.40
2022-12-17T00:22:41.671Z,173.10
2022-12-17T00:23:41.665Z,125.90
2022-12-17T00:24:41.648Z,164.00
2022-12-17T00:25:43.495Z,125.80
2022-12-17T00:26:41.628Z,143.00
2022-12-17T00:27:41.612Z,223.90
2022-12-17T00:28:41.609Z,150.20
2022-12-17T00:29:41.591Z,153.50
2022-12-17T00:30:41.588Z,151.30
2022-12-17T00:31:41.747Z,144.10
2022-12-17T00:32:41.568Z,135.90
2022-12-17T00:33:41.549Z,138.70
2022-12-17T00:34:41.549Z,131.50
2022-12-17T00:35:41.526Z,175.40
2022-12-17T00:36:41.523Z,131.80
2022-12-17T00:37:41.721Z,119.00
2022-12-17T00:38:41.649Z,137.70
2022-12-17T00:39:41.480Z,205.70
2022-12-17T00:40:41.479Z,253.50
2022-12-17T00:41:41.464Z,133.80
2022-12-17T00:42:41.456Z,190.50
2022-12-17T00:43:41.474Z,221.00
2022-12-17T00:44:41.435Z,234.00
2022-12-17T00:45:41.427Z,161.60
2022-12-17T00:46:41.483Z,199.30
2022-12-17T00:47:41.405Z,148.00
2022-12-17T00:48:41.392Z,258.30
2022-12-17T00:49:41.401Z,194.80
2022-12-17T00:50:41.367Z,240.90
2022-12-17T00:51:41.353Z,185.10
2022-12-17T00:52:41.348Z,280.40
2022-12-17T00:53:41.332Z,139.40
2022-12-17T00:54:41.324Z,199.80
2022-12-17T00:55:41.342Z,267.00
2022-12-17T00:56:41.310Z,218.10
2022-12-17T00:57:41.329Z,371.50
2022-12-17T00:58:41.282Z,254.50
2022-12-17T00:59:41.270Z,152.60
2022-12-17T01:00:41.287Z,220.90
2022-12-17T01:01:41.524Z,142.20
2022-12-17T01:02:41.351Z,145.90
2022-12-17T01:03:41.225Z,211.40
2022-12-17T01:04:41.218Z,194.60
2022-12-17T01:05:41.199Z,256.00
2022-12-17T01:06:41.195Z,206.00
2022-12-17T01:07:41.202Z,155.40
2022-12-17T01:08:41.173Z,168.50
2022-12-17T01:09:41.169Z,225.00
2022-12-17T01:10:41.149Z,162.80
2022-12-17T01:11:41.141Z,425.60
2022-12-17T01:12:41.143Z,324.00
2022-12-17T01:13:41.159Z,212.00
2022-12-17T01:14:41.106Z,232.50
2022-12-17T01:15:41.100Z,207.70
2022-12-17T01:16:41.193Z,173.60
2022-12-17T01:17:41.075Z,166.20
2022-12-17T01:18:41.060Z,174.20
2022-12-17T01:19:41.077Z,174.40
2022-12-17T01:20:41.040Z,260.70
2022-12-17T01:21:41.034Z,184.70
2022-12-17T01:22:41.014Z,170.20
2022-12-17T01:23:41.028Z,178.10
2022-12-17T01:24:40.995Z,173.00
2022-12-17T01:25:41.025Z,160.50
2022-12-17T01:26:40.976Z,170.30
2022-12-17T01:27:40.968Z,173.60
2022-12-17T01:28:40.953Z,202.70
2022-12-17T01:29:40.951Z,221.30
2022-12-17T01:30:40.934Z,229.20
2022-12-17T01:31:40.971Z,161.50
2022-12-17T01:32:40.916Z,180.10
2022-12-17T01:33:40.900Z,187.70
2022-12-17T01:34:40.887Z,268.00
2022-12-17T01:35:40.882Z,183.90
2022-12-17T01:36:40.862Z,160.60
2022-12-17T01:37:40.891Z,194.10
2022-12-17T01:38:40.842Z,170.80
2022-12-17T01:39:40.837Z,281.80
2022-12-17T01:40:40.821Z,146.20
2022-12-17T01:41:40.822Z,150.60
2022-12-17T01:42:40.797Z,147.20
2022-12-17T01:43:41.078Z,146.60
2022-12-17T01:44:40.780Z,163.50
2022-12-17T01:45:40.795Z,152.10
2022-12-17T01:46:40.768Z,158.80
2022-12-17T01:47:40.752Z,186.00
2022-12-17T01:48:40.737Z,276.10
2022-12-17T01:49:40.751Z,261.80
2022-12-17T01:50:40.716Z,171.00
2022-12-17T01:51:40.711Z,171.80
2022-12-17T01:52:40.692Z,319.70
2022-12-17T01:53:40.688Z,166.10
2022-12-17T01:54:40.676Z,181.60
2022-12-17T01:55:40.687Z,164.20
2022-12-17T01:56:40.647Z,263.50
2022-12-17T01:57:40.645Z,313.10
2022-12-17T01:58:40.628Z,189.90
2022-12-17T01:59:40.621Z,189.80
2022-12-17T02:00:40.645Z,165.20
2022-12-17T02:01:40.827Z,163.40
2022-12-17T02:02:40.735Z,230.10
2022-12-17T02:03:40.577Z,173.90
2022-12-17T02:04:40.560Z,157.60
2022-12-17T02:05:40.557Z,203.70
2022-12-17T02:06:40.538Z,311.60
2022-12-17T02:07:40.646Z,239.20
2022-12-17T02:08:40.516Z,290.60
2022-12-17T02:09:40.507Z,276.80
2022-12-17T02:10:40.500Z,213.00
2022-12-17T02:11:40.486Z,281.80
2022-12-17T02:12:40.478Z,201.00
2022-12-17T02:13:40.501Z,261.90
2022-12-17T02:14:40.457Z,427.00
2022-12-17T02:15:40.446Z,261.90
2022-12-17T02:16:40.635Z,348.70
2022-12-17T02:17:40.420Z,191.10
2022-12-17T02:18:40.416Z,221.00
2022-12-17T02:19:40.427Z,206.90
2022-12-17T02:20:40.391Z,245.70
2022-12-17T02:21:40.390Z,195.40
2022-12-17T02:22:40.369Z,171.50
2022-12-17T02:23:40.355Z,201.40
2022-12-17T02:24:40.348Z,169.70
2022-12-17T02:25:40.353Z,196.00
2022-12-17T02:26:40.323Z,262.00
2022-12-17T02:27:40.310Z,218.70
2022-12-17T02:28:40.304Z,450.10
2022-12-17T02:29:40.286Z,355.70
2022-12-17T02:30:40.279Z,270.40
2022-12-17T02:31:40.366Z,233.10
2022-12-17T02:32:40.259Z,303.50
2022-12-17T02:33:40.260Z,217.20
2022-12-17T02:34:40.237Z,216.70
2022-12-17T02:35:40.222Z,251.70
2022-12-17T02:36:40.212Z,281.50
2022-12-17T02:37:40.231Z,241.30
2022-12-17T02:38:40.194Z,266.30
2022-12-17T02:39:40.187Z,248.60
2022-12-17T02:40:40.173Z,331.20
2022-12-17T02:41:40.157Z,247.60
2022-12-17T02:42:40.149Z,215.60
2022-12-17T02:43:40.170Z,356.20
2022-12-17T02:44:40.131Z,259.50
2022-12-17T02:45:40.188Z,237.80
2022-12-17T02:46:40.104Z,302.40
2022-12-17T02:47:40.089Z,309.00
2022-12-17T02:48:40.085Z,289.60
2022-12-17T02:49:40.094Z,222.10
2022-12-17T02:50:40.073Z,242.70
2022-12-17T02:51:40.043Z,217.20
2022-12-17T02:52:40.042Z,220.30
2022-12-17T02:53:40.022Z,274.60
2022-12-17T02:54:40.046Z,268.60
2022-12-17T02:55:40.033Z,263.90
2022-12-17T02:56:40.005Z,241.60
2022-12-17T02:57:43.801Z,243.90
2022-12-17T02:58:39.971Z,448.40
2022-12-17T02:59:39.955Z,306.50
2022-12-17T03:00:39.949Z,290.80
2022-12-17T03:01:40.110Z,279.10
2022-12-17T03:02:40.010Z,287.20
2022-12-17T03:03:40.315Z,452.00
2022-12-17T03:04:39.907Z,299.10
2022-12-17T03:05:47.023Z,422.00
2022-12-17T03:06:39.886Z,248.60
2022-12-17T03:07:39.890Z,235.30
2022-12-17T03:08:39.863Z,221.20
2022-12-17T03:09:39.851Z,221.10
2022-12-17T03:10:39.833Z,208.80
2022-12-17T03:11:39.826Z,222.90
2022-12-17T03:12:39.813Z,357.10
2022-12-17T03:13:39.839Z,245.60
2022-12-17T03:14:39.796Z,237.70
2022-12-17T03:15:39.778Z,280.00
2022-12-17T03:16:39.811Z,241.00
2022-12-17T03:17:39.757Z,268.10
2022-12-17T03:18:39.807Z,229.60
2022-12-17T03:19:39.757Z,252.40
2022-12-17T03:20:39.729Z,260.90
2022-12-17T03:21:39.713Z,249.10
2022-12-17T03:22:39.707Z,259.10
2022-12-17T03:23:39.707Z,216.80
2022-12-17T03:24:39.688Z,244.70
2022-12-17T03:25:39.697Z,299.80
2022-12-17T03:26:39.660Z,297.20
2022-12-17T03:27:39.648Z,301.50
2022-12-17T03:28:39.642Z,328.80
2022-12-17T03:29:39.621Z,293.40
2022-12-17T03:30:42.116Z,283.20
2022-12-17T03:31:39.644Z,312.40
2022-12-17T03:32:39.591Z,277.00
2022-12-17T03:33:39.579Z,240.80
2022-12-17T03:34:39.575Z,226.20
2022-12-17T03:35:39.555Z,259.60
2022-12-17T03:36:39.584Z,250.80
2022-12-17T03:37:39.536Z,232.80
2022-12-17T03:38:39.526Z,259.80
2022-12-17T03:39:39.510Z,225.30
2022-12-17T03:40:39.510Z,236.50
2022-12-17T03:41:39.506Z,241.50
2022-12-17T03:42:39.511Z,256.40
2022-12-17T03:43:39.465Z,244.70
2022-12-17T03:44:39.465Z,236.70
2022-12-17T03:45:39.504Z,243.70
2022-12-17T03:46:39.436Z,287.20
2022-12-17T03:47:39.422Z,240.40
2022-12-17T03:48:39.455Z,337.50
2022-12-17T03:49:39.400Z,274.80
2022-12-17T03:50:39.396Z,248.00
2022-12-17T03:51:39.378Z,318.50
2022-12-17T03:52:39.372Z,329.00
2022-12-17T03:53:39.356Z,252.70
2022-12-17T03:54:39.370Z,259.40
2022-12-17T03:55:39.336Z,231.10
2022-12-17T03:56:39.330Z,251.50
2022-12-17T03:57:39.312Z,281.90
2022-12-17T03:58:39.305Z,362.20
2022-12-17T03:59:39.290Z,295.00
2022-12-17T04:00:39.319Z,278.40
2022-12-17T04:01:39.323Z,283.30
2022-12-17T04:02:39.428Z,272.80
2022-12-17T04:03:39.834Z,296.80
2022-12-17T04:04:39.240Z,292.60
2022-12-17T04:05:39.222Z,257.50
2022-12-17T04:06:39.239Z,283.50
2022-12-17T04:07:39.202Z,257.30
2022-12-17T04:08:39.192Z,278.80
2022-12-17T04:09:39.182Z,282.40
2022-12-17T04:10:39.181Z,277.80
2022-12-17T04:11:39.158Z,334.50
2022-12-17T04:12:39.176Z,255.40
2022-12-17T04:13:41.416Z,270.80
2022-12-17T04:14:39.125Z,228.10
2022-12-17T04:15:39.165Z,248.90
2022-12-17T04:16:39.116Z,227.00
2022-12-17T04:17:39.094Z,256.70
2022-12-17T04:18:39.112Z,246.90
2022-12-17T04:19:39.074Z,247.70
2022-12-17T04:20:39.057Z,250.60
2022-12-17T04:21:39.070Z,245.80
2022-12-17T04:22:39.035Z,286.30
2022-12-17T04:23:39.237Z,280.60
2022-12-17T04:24:39.052Z,297.70
2022-12-17T04:25:39.010Z,227.10
2022-12-17T04:26:38.992Z,251.40
2022-12-17T04:27:38.985Z,343.60
2022-12-17T04:28:38.967Z,293.60
2022-12-17T04:29:38.963Z,248.90
2022-12-17T04:30:39.034Z,260.50
2022-12-17T04:31:38.943Z,249.70
2022-12-17T04:32:38.925Z,299.50
2022-12-17T04:33:39.382Z,279.50
2022-12-17T04:34:38.901Z,344.10
2022-12-17T04:35:38.899Z,270.00
2022-12-17T04:36:38.910Z,282.90
2022-12-17T04:37:38.871Z,260.70
2022-12-17T04:38:38.860Z,302.50
2022-12-17T04:39:38.850Z,422.60
2022-12-17T04:40:38.838Z,317.20
2022-12-17T04:41:38.828Z,308.80
2022-12-17T04:42:38.842Z,275.80
2022-12-17T04:43:39.147Z,234.10
2022-12-17T04:44:38.795Z,220.70
2022-12-17T04:45:38.783Z,259.80
2022-12-17T04:46:38.813Z,254.90
2022-12-17T04:47:38.768Z,262.70
2022-12-17T04:48:38.772Z,262.80
2022-12-17T04:49:38.741Z,261.00
2022-12-17T04:50:38.726Z,252.70
2022-12-17T04:51:38.720Z,303.60
2022-12-17T04:52:38.711Z,263.30
2022-12-17T04:53:39.134Z,294.70
2022-12-17T04:54:38.720Z,302.60
2022-12-17T04:55:38.675Z,307.00
2022-12-17T04:56:38.663Z,255.90
2022-12-17T04:57:38.662Z,279.20
2022-12-17T04:58:38.636Z,274.10
2022-12-17T04:59:38.630Z,270.50
2022-12-17T05:00:38.644Z,259.10
2022-12-17T05:01:38.670Z,254.80
2022-12-17T05:02:42.689Z,263.90
2022-12-17T05:03:39.218Z,241.30
2022-12-17T05:04:38.571Z,233.80
2022-12-17T05:05:38.564Z,268.30
2022-12-17T05:06:38.585Z,291.10
2022-12-17T05:07:38.542Z,267.60
2022-12-17T05:08:41.610Z,214.10
2022-12-17T05:09:38.518Z,229.30
2022-12-17T05:10:38.508Z,289.20
2022-12-17T05:11:38.497Z,229.10
2022-12-17T05:12:38.529Z,259.60
2022-12-17T05:13:38.780Z,267.90
2022-12-17T05:14:38.465Z,237.20
2022-12-17T05:15:38.476Z,250.30
2022-12-17T05:16:38.444Z,257.60
2022-12-17T05:17:38.427Z,238.50
2022-12-17T05:18:38.460Z,274.30
2022-12-17T05:19:38.406Z,246.90
2022-12-17T05:20:38.401Z,249.60
2022-12-17T05:21:38.382Z,249.50
2022-12-17T05:22:38.382Z,262.60
2022-12-17T05:23:38.649Z,281.20
2022-12-17T05:24:38.380Z,259.80
2022-12-17T05:25:38.340Z,209.90
2022-12-17T05:26:38.333Z,274.30
2022-12-17T05:27:38.326Z,211.50
2022-12-17T05:28:38.315Z,233.70
2022-12-17T05:29:38.295Z,234.60
2022-12-17T05:30:38.313Z,204.30
2022-12-17T05:31:38.312Z,213.80
2022-12-17T05:32:38.271Z,213.00
2022-12-17T05:33:38.734Z,208.50
2022-12-17T05:34:38.246Z,246.30
2022-12-17T05:35:38.234Z,214.90
2022-12-17T05:36:38.262Z,210.50
2022-12-17T05:37:38.208Z,197.10
2022-12-17T05:38:38.205Z,210.00
2022-12-17T05:39:38.186Z,200.60
2022-12-17T05:40:38.180Z,222.10
2022-12-17T05:41:38.165Z,207.70
2022-12-17T05:42:38.181Z,235.40
2022-12-17T05:43:38.545Z,244.00
2022-12-17T05:44:38.141Z,220.90
2022-12-17T05:45:38.119Z,203.10
2022-12-17T05:46:38.128Z,207.20
2022-12-17T05:47:38.107Z,193.20
2022-12-17T05:48:38.385Z,189.80
2022-12-17T05:49:38.083Z,191.70
2022-12-17T05:50:38.089Z,179.60
2022-12-17T05:51:38.995Z,184.90
2022-12-17T05:52:38.049Z,165.50
2022-12-17T05:53:38.549Z,168.30
2022-12-17T05:54:38.049Z,167.20
2022-12-17T05:55:38.009Z,230.30
2022-12-17T05:56:38.007Z,151.00
2022-12-17T05:57:37.987Z,143.50
2022-12-17T05:58:37.981Z,159.40
2022-12-17T05:59:37.970Z,192.40
2022-12-17T06:00:37.998Z,162.60
2022-12-17T06:01:38.031Z,162.10
2022-12-17T06:02:38.056Z,160.00
2022-12-17T06:03:38.326Z,180.50
2022-12-17T06:04:37.919Z,160.80
2022-12-17T06:05:37.903Z,138.40
2022-12-17T06:06:37.920Z,150.00
2022-12-17T06:07:37.880Z,174.00
2022-12-17T06:08:37.874Z,189.60
2022-12-17T06:09:37.857Z,184.40
2022-12-17T06:10:37.845Z,155.50
2022-12-17T06:11:37.841Z,181.40
2022-12-17T06:12:37.854Z,178.10
2022-12-17T06:13:38.117Z,170.30
2022-12-17T06:14:37.802Z,153.70
2022-12-17T06:15:37.796Z,153.40
2022-12-17T06:16:37.883Z,168.60
2022-12-17T06:17:37.774Z,161.50
2022-12-17T06:18:37.781Z,158.80
2022-12-17T06:19:37.751Z,195.90
2022-12-17T06:20:37.737Z,154.30
2022-12-17T06:21:37.730Z,150.00
2022-12-17T06:22:37.716Z,155.70
2022-12-17T06:23:37.977Z,153.80
2022-12-17T06:24:41.384Z,167.80
2022-12-17T06:25:37.691Z,176.30
2022-12-17T06:26:37.668Z,144.70
2022-12-17T06:27:37.664Z,164.50
2022-12-17T06:28:37.650Z,151.20
2022-12-17T06:29:37.654Z,167.40
2022-12-17T06:30:37.661Z,189.10
2022-12-17T06:31:37.722Z,154.60
2022-12-17T06:32:37.615Z,151.80
2022-12-17T06:33:37.989Z,155.70
2022-12-17T06:34:37.582Z,291.90
2022-12-17T06:35:37.577Z,213.90
2022-12-17T06:36:37.593Z,159.70
2022-12-17T06:37:37.558Z,164.10
2022-12-17T06:38:37.540Z,197.80
2022-12-17T06:39:37.535Z,159.30
2022-12-17T06:40:37.525Z,175.00
2022-12-17T06:41:37.516Z,193.20
2022-12-17T06:42:37.532Z,171.50
2022-12-17T06:43:37.656Z,170.80
2022-12-17T06:44:37.478Z,162.60
2022-12-17T06:45:37.468Z,194.40
2022-12-17T06:46:37.530Z,159.50
2022-12-17T06:47:37.450Z,171.40
2022-12-17T06:48:37.464Z,175.80
2022-12-17T06:49:37.423Z,158.20
2022-12-17T06:50:37.411Z,150.30
2022-12-17T06:51:37.403Z,172.10
2022-12-17T06:52:37.386Z,161.30
2022-12-17T06:53:37.757Z,146.20
2022-12-17T06:54:37.390Z,129.60
2022-12-17T06:55:37.358Z,147.60
2022-12-17T06:56:37.342Z,140.80
2022-12-17T06:57:40.792Z,145.00
2022-12-17T06:58:37.328Z,151.10
2022-12-17T06:59:37.322Z,165.20
2022-12-17T07:00:37.374Z,146.30
2022-12-17T07:01:37.453Z,181.20
2022-12-17T07:02:37.409Z,149.00
2022-12-17T07:03:37.707Z,166.60
2022-12-17T07:04:37.259Z,137.40
2022-12-17T07:05:37.248Z,140.20
2022-12-17T07:06:37.266Z,160.00
2022-12-17T07:07:37.232Z,176.60
2022-12-17T07:08:37.212Z,177.70
2022-12-17T07:09:37.205Z,194.30
2022-12-17T07:10:37.192Z,174.80
2022-12-17T07:11:37.254Z,146.70
2022-12-17T07:12:37.208Z,156.90
2022-12-17T07:13:37.479Z,140.70
2022-12-17T07:14:37.145Z,139.20
2022-12-17T07:15:37.139Z,137.50
2022-12-17T07:16:37.160Z,169.80
2022-12-17T07:17:37.111Z,160.60
2022-12-17T07:18:37.131Z,160.80
2022-12-17T07:19:37.087Z,144.80
2022-12-17T07:20:37.081Z,126.00
2022-12-17T07:21:37.066Z,140.00
2022-12-17T07:22:37.059Z,173.60
2022-12-17T07:23:37.382Z,153.90
2022-12-17T07:24:37.077Z,136.50
2022-12-17T07:25:40.465Z,156.60
2022-12-17T07:26:37.017Z,151.70
2022-12-17T07:27:37.016Z,138.70
2022-12-17T07:28:36.994Z,147.80
2022-12-17T07:29:36.992Z,151.40
2022-12-17T07:30:37.000Z,156.70
2022-12-17T07:31:37.003Z,160.40
2022-12-17T07:32:36.945Z,175.40
2022-12-17T07:33:37.377Z,161.90
2022-12-17T07:34:36.923Z,158.00
2022-12-17T07:35:36.920Z,167.70
2022-12-17T07:36:36.939Z,174.60
2022-12-17T07:37:36.898Z,142.80
2022-12-17T07:38:36.881Z,145.10
2022-12-17T07:39:36.883Z,157.50
2022-12-17T07:40:36.855Z,152.70
2022-12-17T07:41:36.851Z,151.90
2022-12-17T07:42:36.856Z,153.00
2022-12-17T07:43:37.346Z,143.60
2022-12-17T07:44:36.814Z,153.60
2022-12-17T07:45:36.819Z,141.20
2022-12-17T07:46:36.797Z,145.90
2022-12-17T07:47:36.821Z,133.90
2022-12-17T07:48:36.770Z,166.10
2022-12-17T07:49:36.764Z,152.80
2022-12-17T07:50:36.748Z,161.70
2022-12-17T07:51:36.767Z,164.90
2022-12-17T07:52:36.740Z,145.40
2022-12-17T07:53:37.171Z,167.20
2022-12-17T07:54:36.705Z,165.80
2022-12-17T07:55:36.698Z,148.60
2022-12-17T07:56:36.682Z,148.90
2022-12-17T07:57:36.682Z,137.70
2022-12-17T07:58:36.695Z,140.70
2022-12-17T07:59:36.654Z,137.20
2022-12-17T08:00:36.687Z,167.50
2022-12-17T08:01:36.776Z,156.20
2022-12-17T08:02:36.843Z,156.40
2022-12-17T08:03:37.189Z,160.70
2022-12-17T08:04:36.627Z,177.00
2022-12-17T08:05:36.595Z,150.80
2022-12-17T08:06:36.582Z,185.20
2022-12-17T08:07:36.579Z,159.30
2022-12-17T08:08:36.549Z,158.10
2022-12-17T08:09:36.543Z,173.80
2022-12-17T08:10:36.556Z,140.50
2022-12-17T08:11:36.520Z,151.70
2022-12-17T08:12:36.509Z,155.40
2022-12-17T08:13:36.938Z,153.60
2022-12-17T08:14:36.490Z,146.30
2022-12-17T08:15:36.514Z,151.30
2022-12-17T08:16:36.513Z,136.40
2022-12-17T08:17:36.461Z,139.10
2022-12-17T08:18:36.444Z,156.30
2022-12-17T08:19:36.470Z,156.10
2022-12-17T08:20:36.429Z,153.90
2022-12-17T08:21:36.434Z,143.50
2022-12-17T08:22:36.405Z,145.30
2022-12-17T08:23:36.822Z,150.90
2022-12-17T08:24:36.381Z,139.10
2022-12-17T08:25:36.365Z,143.80
2022-12-17T08:26:36.390Z,153.60
2022-12-17T08:27:36.347Z,141.70
2022-12-17T08:28:51.670Z,137.50
2022-12-17T08:29:36.326Z,145.10
2022-12-17T08:30:36.397Z,150.20
2022-12-17T08:31:36.301Z,138.50
2022-12-17T08:32:36.314Z,143.20
2022-12-17T08:33:36.601Z,143.00
2022-12-17T08:34:36.271Z,128.50
2022-12-17T08:35:36.255Z,125.40
2022-12-17T08:36:36.266Z,145.00
2022-12-17T08:37:36.269Z,133.20
2022-12-17T08:38:36.243Z,125.40
2022-12-17T08:39:36.210Z,117.70
2022-12-17T08:40:36.203Z,128.40
2022-12-17T08:41:36.193Z,116.80
2022-12-17T08:42:36.182Z,125.80
2022-12-17T08:43:36.802Z,123.40
2022-12-17T08:44:36.160Z,124.10
2022-12-17T08:45:36.263Z,112.40
2022-12-17T08:46:36.218Z,122.70
2022-12-17T08:47:36.204Z,118.90
2022-12-17T08:48:36.145Z,114.50
2022-12-17T08:49:36.148Z,111.40
2022-12-17T08:50:36.096Z,108.70
2022-12-17T08:51:36.133Z,118.20
2022-12-17T08:52:36.071Z,107.20
2022-12-17T08:53:36.445Z,122.80
2022-12-17T08:54:36.444Z,127.20
2022-12-17T08:55:36.043Z,129.90
2022-12-17T08:56:36.029Z,127.60
2022-12-17T08:57:36.013Z,117.70
2022-12-17T08:58:36.006Z,119.30
2022-12-17T08:59:35.993Z,128.60
2022-12-17T09:00:36.012Z,122.90
2022-12-17T09:01:36.103Z,118.10
2022-12-17T09:02:36.081Z,113.00
2022-12-17T09:03:36.429Z,117.00
2022-12-17T09:04:35.939Z,117.80
2022-12-17T09:05:35.965Z,121.60
2022-12-17T09:06:39.048Z,107.40
2022-12-17T09:07:35.904Z,114.90
2022-12-17T09:08:35.900Z,114.90
2022-12-17T09:09:35.884Z,125.30
2022-12-17T09:10:35.872Z,123.10
2022-12-17T09:11:35.892Z,126.70
2022-12-17T09:12:35.849Z,130.00
2022-12-17T09:13:36.181Z,114.20
2022-12-17T09:14:35.830Z,128.00
2022-12-17T09:15:35.824Z,111.90
2022-12-17T09:16:35.873Z,128.30
2022-12-17T09:17:35.801Z,120.40
2022-12-17T09:18:35.781Z,119.50
2022-12-17T09:19:35.777Z,122.70
2022-12-17T09:20:35.760Z,139.80
2022-12-17T09:21:35.755Z,129.40
2022-12-17T09:22:35.764Z,119.10
2022-12-17T09:23:36.162Z,133.40
2022-12-17T09:24:35.715Z,123.90
2022-12-17T09:25:35.710Z,122.80
2022-12-17T09:26:35.695Z,112.60
2022-12-17T09:27:35.719Z,114.10
2022-12-17T09:28:35.673Z,124.60
2022-12-17T09:29:35.669Z,117.80
2022-12-17T09:30:35.676Z,115.60
2022-12-17T09:31:37.666Z,121.00
2022-12-17T09:32:35.629Z,118.50
2022-12-17T09:33:36.131Z,107.00
2022-12-17T09:34:35.607Z,107.40
2022-12-17T09:35:35.597Z,124.70
2022-12-17T09:36:35.583Z,108.90
2022-12-17T09:37:35.575Z,107.10
2022-12-17T09:38:35.586Z,112.80
2022-12-17T09:39:35.557Z,105.50
2022-12-17T09:40:35.540Z,114.80
2022-12-17T09:41:35.532Z,111.00
2022-12-17T09:42:35.516Z,118.80
2022-12-17T09:43:36.015Z,119.30
2022-12-17T09:44:35.529Z,119.20
2022-12-17T09:45:35.490Z,110.60
2022-12-17T09:46:35.544Z,118.30
2022-12-17T09:47:35.474Z,111.60
2022-12-17T09:48:35.455Z,108.20
2022-12-17T09:49:35.461Z,115.60
2022-12-17T09:50:35.477Z,134.30
2022-12-17T09:51:35.426Z,115.30
2022-12-17T09:52:35.406Z,114.60
2022-12-17T09:53:35.713Z,110.10
2022-12-17T09:54:35.385Z,117.90
2022-12-17T09:55:35.382Z,115.50
2022-12-17T09:56:35.822Z,104.30
2022-12-17T09:57:35.358Z,105.90
2022-12-17T09:58:35.345Z,110.30
2022-12-17T09:59:35.339Z,115.00
2022-12-17T10:00:35.319Z,106.70
2022-12-17T10:01:35.515Z,111.50
2022-12-17T10:02:35.597Z,107.50
2022-12-17T10:03:35.829Z,110.80
2022-12-17T10:04:35.276Z,115.40
2022-12-17T10:05:35.271Z,116.10
2022-12-17T10:06:35.252Z,109.70
2022-12-17T10:07:35.252Z,108.30
2022-12-17T10:08:35.254Z,100.40
2022-12-17T10:09:35.222Z,111.50
2022-12-17T10:10:35.213Z,104.30
2022-12-17T10:11:35.197Z,115.20
2022-12-17T10:12:35.195Z,103.50
2022-12-17T10:13:35.598Z,109.70
2022-12-17T10:14:35.177Z,108.70
2022-12-17T10:15:35.181Z,122.60
2022-12-17T10:16:35.148Z,114.40
2022-12-17T10:17:35.131Z,119.00
2022-12-17T10:18:35.130Z,103.90
2022-12-17T10:19:35.146Z,105.30
2022-12-17T10:20:35.105Z,112.40
2022-12-17T10:21:35.086Z,103.10
2022-12-17T10:22:38.060Z,112.80
2022-12-17T10:23:35.359Z,106.00
2022-12-17T10:24:35.064Z,111.60
2022-12-17T10:25:35.073Z,97.50
2022-12-17T10:26:35.035Z,106.60
2022-12-17T10:27:35.020Z,108.70
2022-12-17T10:28:35.011Z,109.90
2022-12-17T10:29:34.998Z,103.90
2022-12-17T10:30:35.019Z,109.10
2022-12-17T10:31:35.104Z,97.40
2022-12-17T10:32:34.972Z,99.30
2022-12-17T10:33:35.365Z,104.50
2022-12-17T10:34:34.950Z,101.50
2022-12-17T10:35:34.953Z,103.40
2022-12-17T10:36:34.922Z,102.70
2022-12-17T10:37:34.907Z,106.40
2022-12-17T10:38:34.905Z,104.20
2022-12-17T10:39:34.885Z,105.10
2022-12-17T10:40:34.878Z,104.70
2022-12-17T10:41:34.894Z,109.40
2022-12-17T10:42:34.863Z,112.20
2022-12-17T10:43:35.146Z,108.60
2022-12-17T10:44:34.836Z,102.40
2022-12-17T10:45:34.821Z,102.80
2022-12-17T10:46:34.836Z,109.30
2022-12-17T10:47:34.826Z,102.60
2022-12-17T10:48:34.789Z,101.30
2022-12-17T10:49:34.772Z,103.70
2022-12-17T10:50:34.770Z,106.60
2022-12-17T10:51:34.750Z,108.50
2022-12-17T10:52:34.748Z,105.40
2022-12-17T10:53:35.036Z,109.20
2022-12-17T10:54:34.723Z,96.90
2022-12-17T10:55:34.705Z,101.80
2022-12-17T10:56:34.699Z,103.90
2022-12-17T10:57:34.684Z,104.10
2022-12-17T10:58:34.676Z,100.90
2022-12-17T10:59:34.688Z,100.60
2022-12-17T11:00:34.661Z,96.50
2022-12-17T11:01:34.750Z,107.70
2022-12-17T11:02:34.884Z,112.90
2022-12-17T11:03:35.003Z,112.10
2022-12-17T11:04:34.643Z,110.30
2022-12-17T11:05:34.597Z,113.30
2022-12-17T11:06:38.916Z,113.80
2022-12-17T11:07:34.580Z,114.70
2022-12-17T11:08:34.969Z,109.10
2022-12-17T11:09:34.553Z,105.60
2022-12-17T11:10:34.579Z,112.60
2022-12-17T11:11:34.532Z,105.90
2022-12-17T11:12:34.522Z,113.80
2022-12-17T11:13:34.991Z,113.80
2022-12-17T11:14:34.494Z,110.70
2022-12-17T11:15:34.599Z,108.90
2022-12-17T11:16:34.519Z,111.20
2022-12-17T11:17:34.477Z,108.00
2022-12-17T11:18:34.451Z,105.40
2022-12-17T11:19:34.445Z,103.60
2022-12-17T11:20:34.430Z,102.00
2022-12-17T11:21:34.459Z,99.50
2022-12-17T11:22:34.408Z,97.30
2022-12-17T11:23:34.787Z,101.30
2022-12-17T11:24:34.384Z,107.00
2022-12-17T11:25:34.378Z,104.30
2022-12-17T11:26:34.360Z,105.30
2022-12-17T11:27:34.388Z,94.40
2022-12-17T11:28:34.340Z,91.80
2022-12-17T11:29:34.331Z,94.70
2022-12-17T11:30:34.317Z,92.60
2022-12-17T11:31:34.371Z,91.20
2022-12-17T11:32:34.293Z,93.70
2022-12-17T11:33:34.713Z,105.70
2022-12-17T11:34:34.272Z,104.70
2022-12-17T11:35:34.267Z,109.70
2022-12-17T11:36:38.671Z,100.70
2022-12-17T11:37:34.243Z,104.00
2022-12-17T11:38:34.460Z,117.60
2022-12-17T11:39:34.220Z,102.90
2022-12-17T11:40:34.215Z,111.80
2022-12-17T11:41:34.196Z,103.10
2022-12-17T11:42:34.188Z,108.80
2022-12-17T11:43:34.172Z,115.60
2022-12-17T11:44:34.185Z,105.80
2022-12-17T11:45:34.150Z,107.70
2022-12-17T11:46:34.246Z,111.10
2022-12-17T11:47:34.134Z,110.30
2022-12-17T11:48:34.428Z,109.90
2022-12-17T11:49:34.104Z,127.10
2022-12-17T11:50:34.120Z,113.20
2022-12-17T11:51:34.083Z,115.80
2022-12-17T11:52:34.077Z,105.90
2022-12-17T11:53:34.058Z,107.20
2022-12-17T11:54:34.054Z,118.70
2022-12-17T11:55:34.037Z,111.40
2022-12-17T11:56:34.065Z,114.20
2022-12-17T11:57:34.018Z,106.80
2022-12-17T11:58:34.323Z,102.60
2022-12-17T11:59:33.994Z,104.10
2022-12-17T12:00:33.989Z,109.40
2022-12-17T12:01:33.999Z,113.80
2022-12-17T12:02:34.023Z,105.00
2022-12-17T12:03:34.122Z,115.20
2022-12-17T12:04:33.946Z,109.30
2022-12-17T12:05:33.927Z,107.60
2022-12-17T12:06:33.920Z,98.40
2022-12-17T12:07:33.904Z,102.80
2022-12-17T12:08:34.231Z,98.90
2022-12-17T12:09:33.886Z,96.90
2022-12-17T12:10:33.872Z,102.70
2022-12-17T12:11:33.864Z,100.90
2022-12-17T12:12:33.848Z,95.90
2022-12-17T12:13:33.842Z,104.70
2022-12-17T12:14:33.853Z,98.10
2022-12-17T12:15:33.819Z,99.30
2022-12-17T12:16:34.306Z,101.30
2022-12-17T12:17:33.796Z,101.50
2022-12-17T12:18:33.881Z,100.30
2022-12-17T12:19:33.795Z,97.50
2022-12-17T12:20:33.766Z,96.30
2022-12-17T12:21:33.752Z,105.20
2022-12-17T12:22:33.737Z,96.70
2022-12-17T12:23:33.728Z,92.70
2022-12-17T12:24:33.711Z,98.90
2022-12-17T12:25:33.736Z,93.80
2022-12-17T12:26:33.688Z,99.90
2022-12-17T12:27:37.764Z,91.40
2022-12-17T12:28:33.919Z,97.20
2022-12-17T12:29:33.682Z,91.90